Airfield :
LOGIN :

Register | Disclaimer

   EN    FR    IT 

 










Legend :    VFR   Marginal VFR   IFR   Intensive IFR   Very Intensive IFR
Visi :
Ceiling :
>= 8 km
>= 3000ft
5 to 8 km
1000 to 3000 ft
1500m to 5 km
500 to 1000 ft
800 to 1500m
200 to 500 ft
< 800m
< 200 ft
Symbols :   Thunderstorms  Fog  Heavy snow  Heavy precipitations  Wind > 20 kt
SIGMETs :     Misc.  Thunderstorms  Icing  Turbulence  Mountain Waves  Volcanic Ashes






- Airport Elevation : 313 ft
- IATA code : LEH


LFOH - Le Havre Octeville

CURRENT METAR :
  • 031200Z AUTO 32011KT 9999 BKN017 OVC022 17/12 Q1017 TEMPO 3000 SHRA BKN013 BKN030CB

EXPIRED METARs :
  • 031130Z AUTO 32013KT 9999 OVC017 17/12 Q1017 TEMPO 3000 SHRA BKN013 BKN030CB
  • 031100Z AUTO 31013KT 270V340 9999 BKN018 BKN023 17/12 Q1017 TEMPO 3000 SHRA BKN013 BKN030CB
  • 031030Z AUTO 32014KT 290V350 9999 BKN017 OVC024 17/12 Q1017 TEMPO 3000 SHRA BKN013 BKN030CB
  • 031000Z AUTO 32013KT 290V350 9999 BKN019 17/12 Q1017 TEMPO 3000 SHRA BKN013 BKN030CB
  • 030930Z AUTO 31014KT 9999 BKN018 BKN024 17/12 Q1017 TEMPO 3000 SHRA BKN013 BKN030CB

TAF TAF LFOH
Valid from the 03 at 12:00 until the 04 at 12:00 UTC


031100Z 0312/0412 33012KT 9999 BKN020
PROB30
TEMPO 0312/0315 3000 SHRA BKN013 BKN030CB
BECMG 0321/0324 26005KT
TEMPO 0403/0406 3000 BR
ATIS : +33 2 35 54 64 93



MET'MAP, your aeronautical weather chart ! - Copyright ORBIFLY December 2007 - Disclaimer

ORBIFLY MET'MAP TEAM :

Programming & Development : Alexandra Zaïnal
Concept & original design : Baudouin d'Aumeries
Assistance for programming : Marc-Olivier Méhu
Technical & hardware support : Manuel Goepfert

Contact : metmap@orbifly.com




SOURCES & CREDITS :

   NOAA